Time;durP1;ratioP1;P1;durP2;ratioP2;P2;SDS_P1;SDS_P2;PMS_P1;PMS_P2;Temp;Humidity;BMP_temperature;BMP_pressure;BME280_temperature;BME280_humidity;BME280_pressure;Samples;Min_cycle;Max_cycle;Signal;HPM_P1;HPM_P2
2021/07/03 00:00:18;;;;;;;8.20;5.28;;;;;;;18.40;100.00;100079.63;715825;1199;114323;-80
2021/07/03 00:15:40;;;;;;;7.30;5.25;;;;;;;18.42;100.00;100068.81;715980;1199;114052;-80
2021/07/03 00:30:43;;;;;;;6.75;5.93;;;;;;;18.44;100.00;100078.23;716347;1173;114746;-80
2021/07/03 00:45:45;;;;;;;9.75;6.75;;;;;;;18.35;100.00;100070.60;715557;1199;113811;-80
2021/07/03 01:00:47;;;;;;;7.33;6.33;;;;;;;18.34;100.00;100068.95;716134;1202;113431;-80
2021/07/03 01:15:49;;;;;;;11.00;6.48;;;;;;;18.20;100.00;100057.38;716096;1199;115219;-80
2021/07/03 01:30:53;;;;;;;12.30;7.03;;;;;;;18.18;100.00;100056.77;715837;1199;114200;-82
2021/07/03 01:45:57;;;;;;;11.88;7.28;;;;;;;18.02;100.00;100029.47;715838;1199;114424;-80
2021/07/03 02:00:59;;;;;;;7.37;6.60;;;;;;;18.05;100.00;100036.23;715834;1176;115147;-80
2021/07/03 02:16:01;;;;;;;10.33;7.03;;;;;;;18.04;100.00;100064.61;714651;1200;115071;-79
2021/07/03 02:31:05;;;;;;;10.20;6.13;;;;;;;18.12;100.00;100069.79;714214;1202;113873;-80
2021/07/03 02:46:07;;;;;;;12.63;7.10;;;;;;;18.12;100.00;100069.79;713977;1202;114603;-80
2021/07/03 03:01:10;;;;;;;12.23;7.40;;;;;;;18.22;100.00;100085.38;714053;1178;114936;-80
2021/07/03 03:16:12;;;;;;;11.55;7.55;;;;;;;18.18;100.00;100094.74;714091;1199;113972;-80
2021/07/03 03:31:15;;;;;;;9.13;7.20;;;;;;;18.11;100.00;100088.56;714229;1199;114010;-79
2021/07/03 03:46:17;;;;;;;12.38;6.40;;;;;;;18.09;100.00;100069.34;714774;1199;114469;-81
2021/07/03 04:01:19;;;;;;;7.78;6.60;;;;;;;18.14;100.00;100080.21;714824;1199;114550;-80
2021/07/03 04:16:21;;;;;;;8.58;6.63;;;;;;;18.06;100.00;100070.53;714694;1200;114438;-79
2021/07/03 04:31:24;;;;;;;11.05;6.93;;;;;;;18.23;100.00;100064.98;714407;1199;113823;-80
2021/07/03 04:46:27;;;;;;;12.83;6.98;;;;;;;18.33;100.00;100070.80;714229;1199;114071;-80
2021/07/03 05:01:30;;;;;;;21.30;17.93;;;;;;;18.52;100.00;100074.61;714757;1199;115074;-81
2021/07/03 05:16:32;;;;;;;10.47;8.23;;;;;;;18.79;100.00;100064.17;714118;1177;114061;-80
2021/07/03 05:31:38;;;;;;;12.90;8.70;;;;;;;18.94;100.00;100075.55;713975;1198;115570;-80
2021/07/03 05:46:41;;;;;;;12.35;9.85;;;;;;;18.99;100.00;100079.45;713956;1202;114688;-79
2021/07/03 06:01:43;;;;;;;14.20;9.58;;;;;;;19.14;100.00;100087.33;714214;1202;113938;-80
2021/07/03 06:16:45;;;;;;;14.60;8.95;;;;;;;19.41;100.00;100083.77;714483;1200;114029;-81
2021/07/03 06:31:48;;;;;;;15.05;10.70;;;;;;;19.62;100.00;100080.17;715268;1200;113969;-81
2021/07/03 06:46:50;;;;;;;14.08;9.73;;;;;;;19.82;100.00;100078.60;715113;1199;115067;-81
2021/07/03 07:01:53;;;;;;;14.37;10.90;;;;;;;20.24;100.00;100103.25;715006;1202;115280;-81
2021/07/03 07:16:56;;;;;;;16.20;10.77;;;;;;;20.45;100.00;100105.74;714575;1199;114228;-77
2021/07/03 07:31:58;;;;;;;16.20;11.60;;;;;;;20.54;100.00;100116.19;714282;1182;113442;-73
2021/07/03 07:47:00;;;;;;;19.75;12.33;;;;;;;20.77;100.00;100115.78;714755;1199;114204;-73
2021/07/03 08:02:03;;;;;;;17.20;10.45;;;;;;;21.09;100.00;100122.10;715036;1181;114084;-75
2021/07/03 08:17:06;;;;;;;17.23;10.63;;;;;;;21.89;100.00;100115.66;715247;1175;114008;-84
2021/07/03 08:32:09;;;;;;;17.37;12.40;;;;;;;22.41;100.00;100120.91;715296;1200;114723;-75
2021/07/03 08:47:11;;;;;;;15.30;9.48;;;;;;;22.30;100.00;100123.42;714603;1174;114523;-74
2021/07/03 09:02:13;;;;;;;14.83;10.25;;;;;;;21.94;100.00;100123.84;714918;1202;115114;-75
2021/07/03 09:17:16;;;;;;;14.20;10.08;;;;;;;21.71;100.00;100129.73;719787;1174;114660;-75
2021/07/03 09:32:27;;;;;;;12.83;9.43;;;;;;;21.48;100.00;100129.38;719700;1199;116076;-76
2021/07/03 09:47:29;;;;;;;15.58;9.75;;;;;;;21.67;100.00;100127.68;715180;1199;116155;-75
2021/07/03 10:02:34;;;;;;;12.68;9.75;;;;;;;21.89;100.00;100130.86;716267;1199;114013;-78
2021/07/03 10:17:37;;;;;;;12.55;9.88;;;;;;;22.64;100.00;100126.70;715321;1200;113858;-83
2021/07/03 10:32:40;;;;;;;16.78;11.78;;;;;;;22.87;100.00;100110.02;715211;1176;115242;-83
2021/07/03 10:47:43;;;;;;;14.55;9.15;;;;;;;24.09;100.00;100103.84;714776;1200;114052;-84
2021/07/03 11:02:46;;;;;;;15.85;9.20;;;;;;;23.75;100.00;100098.13;714987;1176;113894;-75
2021/07/03 11:17:48;;;;;;;9.78;7.53;;;;;;;23.87;100.00;100097.34;714805;1177;114726;-79
2021/07/03 11:32:56;;;;;;;14.98;10.15;;;;;;;23.87;100.00;100095.47;723173;1176;113764;-81
2021/07/03 11:48:08;;;;;;;10.30;8.40;;;;;;;23.97;100.00;100092.28;716479;1188;114252;-82
2021/07/03 12:03:12;;;;;;;12.55;9.00;;;;;;;24.56;100.00;100084.34;718373;1202;113910;-81
2021/07/03 12:18:28;;;;;;;11.75;8.88;;;;;;;25.19;100.00;100076.59;715884;1202;115127;-81
2021/07/03 12:33:30;;;;;;;8.63;7.23;;;;;;;26.91;100.00;100055.08;715168;1200;115538;-82
2021/07/03 12:48:38;;;;;;;9.85;6.60;;;;;;;27.74;100.00;100048.73;715416;1200;114515;-82
2021/07/03 13:03:46;;;;;;;9.65;7.83;;;;;;;25.59;100.00;100058.88;714762;1200;115450;-82
2021/07/03 13:19:02;;;;;;;20.20;12.70;;;;;;;24.63;100.00;100057.44;714843;1199;113789;-81
2021/07/03 13:34:04;;;;;;;11.15;8.00;;;;;;;25.12;100.00;100042.91;715039;1199;115069;-83
2021/07/03 13:49:07;;;;;;;7.68;6.88;;;;;;;25.88;100.00;100040.02;715079;1199;114854;-82
2021/07/03 14:04:10;;;;;;;8.55;7.65;;;;;;;26.12;100.00;100029.98;715026;1199;115109;-80
2021/07/03 14:19:12;;;;;;;8.47;7.60;;;;;;;25.21;100.00;100039.61;714755;1203;114024;-80
2021/07/03 14:34:15;;;;;;;9.57;5.97;;;;;;;26.09;100.00;100027.77;714555;1200;114529;-82
2021/07/03 14:49:17;;;;;;;8.05;6.95;;;;;;;26.11;100.00;100038.30;714775;1199;114249;-83
2021/07/03 15:04:19;;;;;;;8.50;7.20;;;;;;;26.50;100.00;100031.09;714286;1199;115801;-82
2021/07/03 15:19:22;;;;;;;8.98;8.08;;;;;;;26.24;100.00;100027.22;714335;1200;113995;-81
2021/07/03 15:34:24;;;;;;;9.00;6.78;;;;;;;26.75;100.00;100027.14;714617;1199;114559;-82
2021/07/03 15:49:26;;;;;;;6.95;6.30;;;;;;;26.68;100.00;100013.84;714620;1199;114052;-81
2021/07/03 16:04:29;;;;;;;9.93;8.83;;;;;;;25.38;100.00;100018.22;714806;1199;114368;-82
2021/07/03 16:19:31;;;;;;;9.33;7.10;;;;;;;24.48;100.00;100024.88;715447;1202;113889;-79
2021/07/03 16:34:34;;;;;;;11.95;8.93;;;;;;;22.04;100.00;100047.78;714822;1200;114166;-79
2021/07/03 16:49:36;;;;;;;15.13;9.13;;;;;;;21.91;100.00;100054.05;714971;1202;114981;-81
2021/07/03 17:04:39;;;;;;;14.05;9.75;;;;;;;21.71;100.00;100032.80;714520;1199;115391;-80
2021/07/03 17:19:42;;;;;;;31.00;16.70;;;;;;;22.03;100.00;100046.16;714803;1176;114175;-79
2021/07/03 17:34:44;;;;;;;13.70;12.00;;;;;;;22.11;100.00;100049.38;714864;1181;116098;-81
2021/07/03 17:49:46;;;;;;;18.73;14.33;;;;;;;22.33;100.00;100069.55;714678;1199;114997;-81
2021/07/03 18:04:48;;;;;;;13.70;11.90;;;;;;;22.22;100.00;100076.42;714773;1178;114434;-79
2021/07/03 18:19:51;;;;;;;14.95;11.15;;;;;;;22.16;100.00;100075.44;714994;1179;115054;-80
2021/07/03 18:34:53;;;;;;;19.00;14.68;;;;;;;22.05;100.00;100084.14;714692;1202;113793;-79
2021/07/03 18:49:55;;;;;;;15.03;13.20;;;;;;;21.75;100.00;100077.55;714723;1199;114306;-80
2021/07/03 19:04:57;;;;;;;14.73;12.80;;;;;;;21.43;100.00;100090.81;714516;1199;114568;-80
2021/07/03 19:20:00;;;;;;;26.90;15.25;;;;;;;21.30;100.00;100082.87;714666;1195;114329;-80
2021/07/03 19:35:04;;;;;;;14.28;11.35;;;;;;;20.89;100.00;100078.66;714785;1174;114178;-79
2021/07/03 19:50:09;;;;;;;15.48;11.53;;;;;;;20.73;100.00;100080.75;714492;1199;114672;-80
2021/07/03 20:05:13;;;;;;;20.75;13.90;;;;;;;20.48;100.00;100077.03;714709;1177;114324;-81
2021/07/03 20:20:19;;;;;;;21.73;15.43;;;;;;;20.31;100.00;100095.27;714562;1200;114206;-80
2021/07/03 20:35:22;;;;;;;18.43;14.40;;;;;;;20.51;100.00;100105.92;714492;1175;114266;-78
2021/07/03 20:50:24;;;;;;;16.70;14.48;;;;;;;20.50;100.00;100112.30;714683;1199;115317;-80
2021/07/03 21:05:27;;;;;;;19.30;12.80;;;;;;;20.40;100.00;100099.37;714474;1199;114826;-79
2021/07/03 21:20:29;;;;;;;15.23;10.50;;;;;;;20.36;100.00;100106.94;715217;1200;114953;-79
2021/07/03 21:35:31;;;;;;;10.53;8.23;;;;;;;20.18;100.00;100099.56;717771;1200;114165;-78
2021/07/03 21:50:34;;;;;;;14.85;8.33;;;;;;;20.06;100.00;100086.03;715386;1202;114132;-79
2021/07/03 22:05:38;;;;;;;16.57;8.77;;;;;;;20.02;100.00;100089.28;715028;1199;114071;-82
2021/07/03 22:20:42;;;;;;;13.70;9.47;;;;;;;20.00;100.00;100081.50;715608;1202;114042;-82
2021/07/03 22:35:45;;;;;;;14.58;10.23;;;;;;;20.07;100.00;100061.05;714476;1182;114998;-81
2021/07/03 22:50:47;;;;;;;19.18;13.05;;;;;;;20.13;100.00;100055.94;714772;1176;115187;-81
2021/07/03 23:05:49;;;;;;;27.08;15.75;;;;;;;20.19;100.00;100061.27;714290;1177;114548;-81
2021/07/03 23:20:52;;;;;;;28.10;17.00;;;;;;;20.20;100.00;100064.74;715964;1176;114315;-82
2021/07/03 23:35:55;;;;;;;26.38;14.78;;;;;;;20.13;100.00;100063.93;714968;1200;114789;-83
2021/07/03 23:50:57;;;;;;;42.15;18.08;;;;;;;19.99;100.00;100058.56;715108;1200;114300;-83
